CYAT

Attawapiskat Airport

Attawapiskat, Canada
METAR CYAT 160600Z AUTO 21011G17KT 9SM CLR 01/M03 A2971 RMK SLP063
Observed Flight Rules
Dec-16 @ 06:00 UTC (33 minutes ago) Visual Flight Rules
Wind Visibility Clouds
210° at 11 knots
 Gusting to 17 knots
9 miles
  • Clear skies
Temperatures Readings
Current 1°C / 34°F
Dewpoint -3°C / 27°F
Humidity 75%
Altimeter 29.71" Hg
Pressure 1006.3 hPa
Elevation 9
METAR CYAT 160600Z AUTO 21011G17KT 9SM CLR 01/M03 A2971 RMK SLP063
Observed Flight Rules
Dec-16 @ 06:00 UTC
(33 minutes ago)
VFR
Wind Visibility
210° at 11 knots
 Gusting to 17 knots
9 miles
Clouds
  • Clear skies
Temperature Dewpoint
1°C / 34°F -3°C / 27°F
Humidity Altimeter Pressure
75% 29.71" Hg 1006.3 hPa